sensor_id;sensor_type;location;lat;lon;timestamp;P1;durP1;ratioP1;P2;durP2;ratioP2
14191;SDS011;7177;48.572;7.838;2024-03-08T00:00:42;46.27;;;31.60;;
14191;SDS011;7177;48.572;7.838;2024-03-08T00:03:08;42.07;;;30.47;;
14191;SDS011;7177;48.572;7.838;2024-03-08T00:05:35;45.72;;;31.95;;
14191;SDS011;7177;48.572;7.838;2024-03-08T00:08:01;43.77;;;30.33;;
14191;SDS011;7177;48.572;7.838;2024-03-08T00:10:26;44.97;;;30.67;;
14191;SDS011;7177;48.572;7.838;2024-03-08T00:12:53;49.50;;;32.65;;
14191;SDS011;7177;48.572;7.838;2024-03-08T00:15:19;42.20;;;30.47;;
14191;SDS011;7177;48.572;7.838;2024-03-08T00:17:46;49.53;;;32.97;;
14191;SDS011;7177;48.572;7.838;2024-03-08T00:20:12;44.67;;;31.40;;
14191;SDS011;7177;48.572;7.838;2024-03-08T00:22:38;41.13;;;28.42;;
14191;SDS011;7177;48.572;7.838;2024-03-08T00:25:04;53.90;;;34.67;;
14191;SDS011;7177;48.572;7.838;2024-03-08T00:27:33;45.55;;;32.33;;
14191;SDS011;7177;48.572;7.838;2024-03-08T00:29:59;46.30;;;33.40;;
14191;SDS011;7177;48.572;7.838;2024-03-08T00:32:25;47.70;;;33.58;;
14191;SDS011;7177;48.572;7.838;2024-03-08T00:34:52;46.35;;;31.63;;
14191;SDS011;7177;48.572;7.838;2024-03-08T00:37:21;53.33;;;35.35;;
14191;SDS011;7177;48.572;7.838;2024-03-08T00:39:52;45.33;;;31.75;;
14191;SDS011;7177;48.572;7.838;2024-03-08T00:42:18;46.23;;;31.67;;
14191;SDS011;7177;48.572;7.838;2024-03-08T00:44:44;48.47;;;31.08;;
14191;SDS011;7177;48.572;7.838;2024-03-08T00:47:10;45.93;;;30.80;;
14191;SDS011;7177;48.572;7.838;2024-03-08T00:49:36;45.37;;;31.00;;
14191;SDS011;7177;48.572;7.838;2024-03-08T00:52:03;50.63;;;32.53;;
14191;SDS011;7177;48.572;7.838;2024-03-08T00:54:32;48.80;;;32.10;;
14191;SDS011;7177;48.572;7.838;2024-03-08T00:56:58;45.90;;;31.08;;
14191;SDS011;7177;48.572;7.838;2024-03-08T00:59:24;49.47;;;32.80;;
14191;SDS011;7177;48.572;7.838;2024-03-08T01:01:50;55.33;;;35.63;;
14191;SDS011;7177;48.572;7.838;2024-03-08T01:04:15;49.80;;;33.60;;
14191;SDS011;7177;48.572;7.838;2024-03-08T01:06:41;50.07;;;33.50;;
14191;SDS011;7177;48.572;7.838;2024-03-08T01:09:10;48.03;;;32.88;;
14191;SDS011;7177;48.572;7.838;2024-03-08T01:11:36;52.60;;;35.33;;
14191;SDS011;7177;48.572;7.838;2024-03-08T01:14:03;47.90;;;31.88;;
14191;SDS011;7177;48.572;7.838;2024-03-08T01:16:28;52.87;;;34.50;;
14191;SDS011;7177;48.572;7.838;2024-03-08T01:18:54;48.50;;;33.43;;
14191;SDS011;7177;48.572;7.838;2024-03-08T01:21:19;52.30;;;35.20;;
14191;SDS011;7177;48.572;7.838;2024-03-08T01:23:45;50.17;;;32.00;;
14191;SDS011;7177;48.572;7.838;2024-03-08T01:26:10;49.30;;;34.67;;
14191;SDS011;7177;48.572;7.838;2024-03-08T01:28:36;44.67;;;31.57;;
14191;SDS011;7177;48.572;7.838;2024-03-08T01:31:02;50.60;;;33.37;;
14191;SDS011;7177;48.572;7.838;2024-03-08T01:33:29;55.05;;;35.70;;
14191;SDS011;7177;48.572;7.838;2024-03-08T01:35:55;55.22;;;35.53;;
14191;SDS011;7177;48.572;7.838;2024-03-08T01:38:22;47.92;;;31.77;;
14191;SDS011;7177;48.572;7.838;2024-03-08T01:40:47;44.03;;;30.00;;
14191;SDS011;7177;48.572;7.838;2024-03-08T01:43:25;42.35;;;29.45;;
14191;SDS011;7177;48.572;7.838;2024-03-08T01:45:53;43.72;;;30.52;;
14191;SDS011;7177;48.572;7.838;2024-03-08T01:48:20;39.75;;;28.48;;
14191;SDS011;7177;48.572;7.838;2024-03-08T01:50:49;40.78;;;29.40;;
14191;SDS011;7177;48.572;7.838;2024-03-08T01:53:15;45.22;;;32.67;;
14191;SDS011;7177;48.572;7.838;2024-03-08T01:55:42;50.92;;;33.40;;
14191;SDS011;7177;48.572;7.838;2024-03-08T01:58:11;48.75;;;33.30;;
14191;SDS011;7177;48.572;7.838;2024-03-08T02:00:40;49.80;;;33.90;;
14191;SDS011;7177;48.572;7.838;2024-03-08T02:03:08;52.55;;;34.38;;
14191;SDS011;7177;48.572;7.838;2024-03-08T02:05:35;45.65;;;32.17;;
14191;SDS011;7177;48.572;7.838;2024-03-08T02:08:01;48.88;;;31.13;;
14191;SDS011;7177;48.572;7.838;2024-03-08T02:10:27;52.63;;;34.33;;
14191;SDS011;7177;48.572;7.838;2024-03-08T02:12:53;57.42;;;35.83;;
14191;SDS011;7177;48.572;7.838;2024-03-08T02:15:20;47.63;;;32.28;;
14191;SDS011;7177;48.572;7.838;2024-03-08T02:17:46;48.08;;;31.77;;
14191;SDS011;7177;48.572;7.838;2024-03-08T02:20:12;45.70;;;32.43;;
14191;SDS011;7177;48.572;7.838;2024-03-08T02:22:38;43.00;;;29.92;;
14191;SDS011;7177;48.572;7.838;2024-03-08T02:25:04;49.10;;;32.50;;
14191;SDS011;7177;48.572;7.838;2024-03-08T02:27:30;46.58;;;31.48;;
14191;SDS011;7177;48.572;7.838;2024-03-08T02:29:56;48.00;;;32.27;;
14191;SDS011;7177;48.572;7.838;2024-03-08T02:32:22;51.88;;;35.72;;
14191;SDS011;7177;48.572;7.838;2024-03-08T02:34:49;52.35;;;34.95;;
14191;SDS011;7177;48.572;7.838;2024-03-08T02:37:17;48.70;;;34.17;;
14191;SDS011;7177;48.572;7.838;2024-03-08T02:39:43;44.20;;;30.27;;
14191;SDS011;7177;48.572;7.838;2024-03-08T02:42:09;53.43;;;34.63;;
14191;SDS011;7177;48.572;7.838;2024-03-08T02:44:34;49.03;;;34.37;;
14191;SDS011;7177;48.572;7.838;2024-03-08T02:47:00;47.33;;;32.57;;
14191;SDS011;7177;48.572;7.838;2024-03-08T02:49:26;48.57;;;32.70;;
14191;SDS011;7177;48.572;7.838;2024-03-08T02:51:54;42.78;;;30.98;;
14191;SDS011;7177;48.572;7.838;2024-03-08T02:54:22;42.58;;;29.25;;
14191;SDS011;7177;48.572;7.838;2024-03-08T02:56:48;44.45;;;30.00;;
14191;SDS011;7177;48.572;7.838;2024-03-08T02:59:17;41.33;;;27.77;;
14191;SDS011;7177;48.572;7.838;2024-03-08T03:01:43;44.80;;;30.45;;
14191;SDS011;7177;48.572;7.838;2024-03-08T03:04:09;41.40;;;29.20;;
14191;SDS011;7177;48.572;7.838;2024-03-08T03:06:34;41.87;;;29.10;;
14191;SDS011;7177;48.572;7.838;2024-03-08T03:09:00;41.20;;;28.23;;
14191;SDS011;7177;48.572;7.838;2024-03-08T03:11:26;45.42;;;31.80;;
14191;SDS011;7177;48.572;7.838;2024-03-08T03:13:52;45.57;;;30.47;;
14191;SDS011;7177;48.572;7.838;2024-03-08T03:16:18;51.90;;;32.85;;
14191;SDS011;7177;48.572;7.838;2024-03-08T03:18:47;45.70;;;31.45;;
14191;SDS011;7177;48.572;7.838;2024-03-08T03:21:14;39.67;;;28.55;;
14191;SDS011;7177;48.572;7.838;2024-03-08T03:23:40;38.50;;;28.07;;
14191;SDS011;7177;48.572;7.838;2024-03-08T03:26:07;40.10;;;27.75;;
14191;SDS011;7177;48.572;7.838;2024-03-08T03:28:33;42.67;;;29.57;;
14191;SDS011;7177;48.572;7.838;2024-03-08T03:30:58;48.30;;;31.37;;
14191;SDS011;7177;48.572;7.838;2024-03-08T03:33:24;40.57;;;29.23;;
14191;SDS011;7177;48.572;7.838;2024-03-08T03:35:50;43.38;;;29.63;;
14191;SDS011;7177;48.572;7.838;2024-03-08T03:38:17;39.05;;;26.45;;
14191;SDS011;7177;48.572;7.838;2024-03-08T03:40:44;41.28;;;26.55;;
14191;SDS011;7177;48.572;7.838;2024-03-08T03:43:11;38.00;;;25.38;;
14191;SDS011;7177;48.572;7.838;2024-03-08T03:45:36;42.63;;;29.93;;
14191;SDS011;7177;48.572;7.838;2024-03-08T03:48:02;43.57;;;29.97;;
14191;SDS011;7177;48.572;7.838;2024-03-08T03:50:31;40.85;;;27.02;;
14191;SDS011;7177;48.572;7.838;2024-03-08T03:52:59;38.92;;;27.17;;
14191;SDS011;7177;48.572;7.838;2024-03-08T03:55:25;36.57;;;27.20;;
14191;SDS011;7177;48.572;7.838;2024-03-08T03:57:50;41.17;;;28.23;;
14191;SDS011;7177;48.572;7.838;2024-03-08T04:00:16;37.60;;;26.03;;
14191;SDS011;7177;48.572;7.838;2024-03-08T04:02:41;39.83;;;26.97;;
14191;SDS011;7177;48.572;7.838;2024-03-08T04:05:08;45.13;;;29.17;;
14191;SDS011;7177;48.572;7.838;2024-03-08T04:07:35;44.13;;;31.00;;
14191;SDS011;7177;48.572;7.838;2024-03-08T04:10:01;39.63;;;28.30;;
14191;SDS011;7177;48.572;7.838;2024-03-08T04:12:33;45.38;;;28.63;;
14191;SDS011;7177;48.572;7.838;2024-03-08T04:14:59;41.35;;;28.33;;
14191;SDS011;7177;48.572;7.838;2024-03-08T04:17:25;40.40;;;27.03;;
14191;SDS011;7177;48.572;7.838;2024-03-08T04:19:51;44.97;;;30.47;;
14191;SDS011;7177;48.572;7.838;2024-03-08T04:22:17;47.50;;;30.77;;
14191;SDS011;7177;48.572;7.838;2024-03-08T04:24:43;45.03;;;29.63;;
14191;SDS011;7177;48.572;7.838;2024-03-08T04:27:09;40.50;;;28.23;;
14191;SDS011;7177;48.572;7.838;2024-03-08T04:29:35;39.73;;;27.47;;
14191;SDS011;7177;48.572;7.838;2024-03-08T04:32:02;41.17;;;28.70;;
14191;SDS011;7177;48.572;7.838;2024-03-08T04:34:29;42.42;;;28.80;;
14191;SDS011;7177;48.572;7.838;2024-03-08T04:36:56;44.53;;;28.67;;
14191;SDS011;7177;48.572;7.838;2024-03-08T04:39:22;49.22;;;30.70;;
14191;SDS011;7177;48.572;7.838;2024-03-08T04:41:49;45.97;;;30.43;;
14191;SDS011;7177;48.572;7.838;2024-03-08T04:44:15;45.10;;;30.70;;
14191;SDS011;7177;48.572;7.838;2024-03-08T04:46:42;47.25;;;30.33;;
14191;SDS011;7177;48.572;7.838;2024-03-08T04:49:08;50.37;;;32.03;;
14191;SDS011;7177;48.572;7.838;2024-03-08T04:51:33;47.10;;;30.87;;
14191;SDS011;7177;48.572;7.838;2024-03-08T04:53:59;49.57;;;32.90;;
14191;SDS011;7177;48.572;7.838;2024-03-08T04:56:24;48.60;;;30.90;;
14191;SDS011;7177;48.572;7.838;2024-03-08T04:58:50;45.93;;;30.30;;
14191;SDS011;7177;48.572;7.838;2024-03-08T05:01:16;46.87;;;31.27;;
14191;SDS011;7177;48.572;7.838;2024-03-08T05:03:41;45.33;;;30.17;;
14191;SDS011;7177;48.572;7.838;2024-03-08T05:06:07;53.73;;;34.43;;
14191;SDS011;7177;48.572;7.838;2024-03-08T05:08:33;53.03;;;33.53;;
14191;SDS011;7177;48.572;7.838;2024-03-08T05:10:59;46.77;;;30.97;;
14191;SDS011;7177;48.572;7.838;2024-03-08T05:13:28;47.25;;;32.20;;
14191;SDS011;7177;48.572;7.838;2024-03-08T05:15:55;46.58;;;31.38;;
14191;SDS011;7177;48.572;7.838;2024-03-08T05:18:23;42.80;;;29.48;;
14191;SDS011;7177;48.572;7.838;2024-03-08T05:20:49;44.60;;;30.47;;
14191;SDS011;7177;48.572;7.838;2024-03-08T05:23:15;41.83;;;27.92;;
14191;SDS011;7177;48.572;7.838;2024-03-08T05:25:40;45.33;;;30.20;;
14191;SDS011;7177;48.572;7.838;2024-03-08T05:28:06;52.10;;;30.37;;
14191;SDS011;7177;48.572;7.838;2024-03-08T05:30:32;60.53;;;37.87;;
14191;SDS011;7177;48.572;7.838;2024-03-08T05:32:57;48.43;;;34.03;;
14191;SDS011;7177;48.572;7.838;2024-03-08T05:35:23;43.63;;;30.50;;
14191;SDS011;7177;48.572;7.838;2024-03-08T05:37:49;39.08;;;26.85;;
14191;SDS011;7177;48.572;7.838;2024-03-08T05:40:15;34.57;;;25.07;;
14191;SDS011;7177;48.572;7.838;2024-03-08T05:42:40;39.77;;;28.00;;
14191;SDS011;7177;48.572;7.838;2024-03-08T05:45:06;41.47;;;26.57;;
14191;SDS011;7177;48.572;7.838;2024-03-08T05:47:32;42.43;;;27.43;;
14191;SDS011;7177;48.572;7.838;2024-03-08T05:49:58;41.50;;;27.00;;
14191;SDS011;7177;48.572;7.838;2024-03-08T05:52:24;35.67;;;24.90;;
14191;SDS011;7177;48.572;7.838;2024-03-08T05:54:51;39.05;;;26.95;;
14191;SDS011;7177;48.572;7.838;2024-03-08T05:57:16;38.83;;;27.00;;
14191;SDS011;7177;48.572;7.838;2024-03-08T05:59:42;41.07;;;27.50;;
14191;SDS011;7177;48.572;7.838;2024-03-08T06:02:07;37.77;;;26.43;;
14191;SDS011;7177;48.572;7.838;2024-03-08T06:04:33;40.87;;;27.70;;
14191;SDS011;7177;48.572;7.838;2024-03-08T06:06:58;36.03;;;24.90;;
14191;SDS011;7177;48.572;7.838;2024-03-08T06:09:24;37.80;;;26.40;;
14191;SDS011;7177;48.572;7.838;2024-03-08T06:11:51;37.53;;;26.33;;
14191;SDS011;7177;48.572;7.838;2024-03-08T06:14:18;36.08;;;25.17;;
14191;SDS011;7177;48.572;7.838;2024-03-08T06:16:44;36.53;;;26.27;;
14191;SDS011;7177;48.572;7.838;2024-03-08T06:19:10;34.70;;;24.88;;
14191;SDS011;7177;48.572;7.838;2024-03-08T06:21:37;37.53;;;25.63;;
14191;SDS011;7177;48.572;7.838;2024-03-08T06:24:02;36.03;;;24.50;;
14191;SDS011;7177;48.572;7.838;2024-03-08T06:26:28;36.83;;;25.80;;
14191;SDS011;7177;48.572;7.838;2024-03-08T06:28:54;35.73;;;25.20;;
14191;SDS011;7177;48.572;7.838;2024-03-08T06:31:20;40.85;;;27.40;;
14191;SDS011;7177;48.572;7.838;2024-03-08T06:33:45;38.90;;;26.27;;
14191;SDS011;7177;48.572;7.838;2024-03-08T06:36:11;41.10;;;27.93;;
14191;SDS011;7177;48.572;7.838;2024-03-08T06:38:37;40.23;;;26.63;;
14191;SDS011;7177;48.572;7.838;2024-03-08T06:41:07;38.08;;;26.08;;
14191;SDS011;7177;48.572;7.838;2024-03-08T06:43:34;38.45;;;26.70;;
14191;SDS011;7177;48.572;7.838;2024-03-08T06:45:59;39.87;;;25.93;;
14191;SDS011;7177;48.572;7.838;2024-03-08T06:48:25;35.03;;;24.27;;
14191;SDS011;7177;48.572;7.838;2024-03-08T06:50:50;36.40;;;25.83;;
14191;SDS011;7177;48.572;7.838;2024-03-08T06:53:16;36.43;;;24.20;;
14191;SDS011;7177;48.572;7.838;2024-03-08T06:55:44;35.92;;;24.45;;
14191;SDS011;7177;48.572;7.838;2024-03-08T06:58:09;36.33;;;25.80;;
14191;SDS011;7177;48.572;7.838;2024-03-08T07:00:35;34.77;;;23.77;;
14191;SDS011;7177;48.572;7.838;2024-03-08T07:03:01;32.92;;;23.58;;
14191;SDS011;7177;48.572;7.838;2024-03-08T07:05:30;35.67;;;24.58;;
14191;SDS011;7177;48.572;7.838;2024-03-08T07:07:57;32.47;;;23.42;;
14191;SDS011;7177;48.572;7.838;2024-03-08T07:10:23;33.67;;;23.90;;
14191;SDS011;7177;48.572;7.838;2024-03-08T07:12:49;33.70;;;23.92;;
14191;SDS011;7177;48.572;7.838;2024-03-08T07:15:15;32.67;;;23.95;;
14191;SDS011;7177;48.572;7.838;2024-03-08T07:17:44;32.38;;;22.65;;
14191;SDS011;7177;48.572;7.838;2024-03-08T07:20:10;32.50;;;23.35;;
14191;SDS011;7177;48.572;7.838;2024-03-08T07:22:38;32.30;;;22.83;;
14191;SDS011;7177;48.572;7.838;2024-03-08T07:25:06;33.07;;;24.03;;
14191;SDS011;7177;48.572;7.838;2024-03-08T07:27:48;34.53;;;25.07;;
14191;SDS011;7177;48.572;7.838;2024-03-08T07:30:15;35.20;;;25.27;;
14191;SDS011;7177;48.572;7.838;2024-03-08T07:32:59;32.87;;;24.17;;
14191;SDS011;7177;48.572;7.838;2024-03-08T07:35:27;35.10;;;23.47;;
14191;SDS011;7177;48.572;7.838;2024-03-08T07:37:53;34.47;;;23.03;;
14191;SDS011;7177;48.572;7.838;2024-03-08T07:40:22;28.53;;;22.10;;
14191;SDS011;7177;48.572;7.838;2024-03-08T07:42:48;33.07;;;24.37;;
14191;SDS011;7177;48.572;7.838;2024-03-08T07:45:16;31.27;;;22.27;;
14191;SDS011;7177;48.572;7.838;2024-03-08T07:47:42;35.90;;;24.17;;
14191;SDS011;7177;48.572;7.838;2024-03-08T07:50:08;32.23;;;21.83;;
14191;SDS011;7177;48.572;7.838;2024-03-08T07:52:35;31.70;;;20.87;;
14191;SDS011;7177;48.572;7.838;2024-03-08T07:55:01;34.30;;;21.67;;
14191;SDS011;7177;48.572;7.838;2024-03-08T07:57:28;29.83;;;20.97;;
14191;SDS011;7177;48.572;7.838;2024-03-08T07:59:54;30.30;;;20.73;;
14191;SDS011;7177;48.572;7.838;2024-03-08T08:02:20;27.70;;;19.40;;
14191;SDS011;7177;48.572;7.838;2024-03-08T08:04:46;28.30;;;19.33;;
14191;SDS011;7177;48.572;7.838;2024-03-08T08:07:11;30.33;;;21.07;;
14191;SDS011;7177;48.572;7.838;2024-03-08T08:09:37;28.90;;;19.83;;
14191;SDS011;7177;48.572;7.838;2024-03-08T08:12:03;28.53;;;19.70;;
14191;SDS011;7177;48.572;7.838;2024-03-08T08:14:29;27.73;;;19.33;;
14191;SDS011;7177;48.572;7.838;2024-03-08T08:16:55;31.17;;;20.03;;
14191;SDS011;7177;48.572;7.838;2024-03-08T08:19:22;28.93;;;19.40;;
14191;SDS011;7177;48.572;7.838;2024-03-08T08:21:48;32.23;;;19.73;;
14191;SDS011;7177;48.572;7.838;2024-03-08T08:24:13;26.40;;;18.47;;
14191;SDS011;7177;48.572;7.838;2024-03-08T08:26:39;28.20;;;19.67;;
14191;SDS011;7177;48.572;7.838;2024-03-08T08:29:05;31.43;;;20.83;;
14191;SDS011;7177;48.572;7.838;2024-03-08T08:31:31;26.23;;;18.50;;
14191;SDS011;7177;48.572;7.838;2024-03-08T08:33:58;25.70;;;18.57;;
14191;SDS011;7177;48.572;7.838;2024-03-08T08:36:24;27.87;;;18.43;;
14191;SDS011;7177;48.572;7.838;2024-03-08T08:38:49;27.33;;;19.47;;
14191;SDS011;7177;48.572;7.838;2024-03-08T08:41:15;26.33;;;17.77;;
14191;SDS011;7177;48.572;7.838;2024-03-08T08:43:42;26.47;;;18.80;;
14191;SDS011;7177;48.572;7.838;2024-03-08T08:46:09;24.67;;;16.67;;
14191;SDS011;7177;48.572;7.838;2024-03-08T08:48:38;25.90;;;19.30;;
14191;SDS011;7177;48.572;7.838;2024-03-08T08:51:06;26.83;;;18.60;;
14191;SDS011;7177;48.572;7.838;2024-03-08T08:53:37;24.90;;;17.50;;
14191;SDS011;7177;48.572;7.838;2024-03-08T08:56:07;25.30;;;16.70;;
14191;SDS011;7177;48.572;7.838;2024-03-08T08:58:38;26.23;;;17.83;;
14191;SDS011;7177;48.572;7.838;2024-03-08T09:01:07;24.97;;;18.03;;
14191;SDS011;7177;48.572;7.838;2024-03-08T09:03:34;26.77;;;18.03;;
14191;SDS011;7177;48.572;7.838;2024-03-08T09:06:02;21.80;;;16.73;;
14191;SDS011;7177;48.572;7.838;2024-03-08T09:08:29;25.30;;;18.27;;
14191;SDS011;7177;48.572;7.838;2024-03-08T09:10:54;24.73;;;17.53;;
14191;SDS011;7177;48.572;7.838;2024-03-08T09:13:20;25.10;;;17.17;;
14191;SDS011;7177;48.572;7.838;2024-03-08T09:15:45;26.00;;;16.57;;
14191;SDS011;7177;48.572;7.838;2024-03-08T09:18:11;22.77;;;16.50;;
14191;SDS011;7177;48.572;7.838;2024-03-08T09:20:36;20.97;;;15.63;;
14191;SDS011;7177;48.572;7.838;2024-03-08T09:23:02;24.00;;;15.27;;
14191;SDS011;7177;48.572;7.838;2024-03-08T09:25:29;21.07;;;16.23;;
14191;SDS011;7177;48.572;7.838;2024-03-08T09:27:54;24.97;;;15.47;;
14191;SDS011;7177;48.572;7.838;2024-03-08T09:30:20;22.70;;;15.60;;
14191;SDS011;7177;48.572;7.838;2024-03-08T09:32:46;20.87;;;15.67;;
14191;SDS011;7177;48.572;7.838;2024-03-08T09:35:12;21.27;;;15.27;;
14191;SDS011;7177;48.572;7.838;2024-03-08T09:37:37;19.13;;;14.27;;
14191;SDS011;7177;48.572;7.838;2024-03-08T09:40:03;21.37;;;14.60;;
14191;SDS011;7177;48.572;7.838;2024-03-08T09:42:34;23.87;;;16.57;;
14191;SDS011;7177;48.572;7.838;2024-03-08T09:45:02;19.03;;;14.57;;
14191;SDS011;7177;48.572;7.838;2024-03-08T09:47:35;20.50;;;15.03;;
14191;SDS011;7177;48.572;7.838;2024-03-08T09:50:05;24.23;;;14.60;;
14191;SDS011;7177;48.572;7.838;2024-03-08T09:52:34;19.00;;;14.70;;
14191;SDS011;7177;48.572;7.838;2024-03-08T09:55:05;19.17;;;14.63;;
14191;SDS011;7177;48.572;7.838;2024-03-08T09:57:32;19.10;;;15.13;;
14191;SDS011;7177;48.572;7.838;2024-03-08T09:59:58;19.40;;;13.83;;
14191;SDS011;7177;48.572;7.838;2024-03-08T10:02:24;20.13;;;14.47;;
14191;SDS011;7177;48.572;7.838;2024-03-08T10:04:50;22.43;;;16.03;;
14191;SDS011;7177;48.572;7.838;2024-03-08T10:07:18;20.37;;;15.23;;
14191;SDS011;7177;48.572;7.838;2024-03-08T10:09:44;21.37;;;15.70;;
14191;SDS011;7177;48.572;7.838;2024-03-08T10:12:15;20.87;;;15.20;;
14191;SDS011;7177;48.572;7.838;2024-03-08T10:14:41;22.73;;;16.07;;
14191;SDS011;7177;48.572;7.838;2024-03-08T10:17:07;24.10;;;16.63;;
14191;SDS011;7177;48.572;7.838;2024-03-08T10:19:33;21.53;;;15.63;;
14191;SDS011;7177;48.572;7.838;2024-03-08T10:21:59;24.00;;;15.97;;
14191;SDS011;7177;48.572;7.838;2024-03-08T10:24:25;21.03;;;15.37;;
14191;SDS011;7177;48.572;7.838;2024-03-08T10:27:08;20.33;;;14.73;;
14191;SDS011;7177;48.572;7.838;2024-03-08T10:29:34;21.40;;;15.33;;
14191;SDS011;7177;48.572;7.838;2024-03-08T10:31:59;21.47;;;15.70;;
14191;SDS011;7177;48.572;7.838;2024-03-08T10:34:26;20.63;;;15.73;;
14191;SDS011;7177;48.572;7.838;2024-03-08T10:36:54;23.10;;;15.93;;
14191;SDS011;7177;48.572;7.838;2024-03-08T10:39:29;22.93;;;16.23;;
14191;SDS011;7177;48.572;7.838;2024-03-08T10:42:02;20.17;;;14.97;;
14191;SDS011;7177;48.572;7.838;2024-03-08T10:47:01;22.70;;;15.33;;
14191;SDS011;7177;48.572;7.838;2024-03-08T10:49:30;20.70;;;15.77;;
14191;SDS011;7177;48.572;7.838;2024-03-08T10:52:17;22.17;;;15.43;;
14191;SDS011;7177;48.572;7.838;2024-03-08T10:54:43;19.57;;;14.30;;
14191;SDS011;7177;48.572;7.838;2024-03-08T10:57:10;21.43;;;15.60;;
14191;SDS011;7177;48.572;7.838;2024-03-08T10:59:38;22.27;;;15.17;;
14191;SDS011;7177;48.572;7.838;2024-03-08T11:02:04;20.67;;;15.43;;
14191;SDS011;7177;48.572;7.838;2024-03-08T11:04:30;20.83;;;14.13;;
14191;SDS011;7177;48.572;7.838;2024-03-08T11:07:01;20.00;;;14.50;;
14191;SDS011;7177;48.572;7.838;2024-03-08T11:09:37;19.87;;;13.70;;
14191;SDS011;7177;48.572;7.838;2024-03-08T11:12:23;20.10;;;14.50;;
14191;SDS011;7177;48.572;7.838;2024-03-08T11:14:54;18.40;;;13.80;;
14191;SDS011;7177;48.572;7.838;2024-03-08T11:18:06;21.40;;;14.10;;
14191;SDS011;7177;48.572;7.838;2024-03-08T11:20:13;19.70;;;14.57;;
14191;SDS011;7177;48.572;7.838;2024-03-08T11:22:54;20.63;;;14.90;;
14191;SDS011;7177;48.572;7.838;2024-03-08T11:25:33;19.83;;;13.90;;
14191;SDS011;7177;48.572;7.838;2024-03-08T11:28:13;22.23;;;14.73;;
14191;SDS011;7177;48.572;7.838;2024-03-08T11:30:45;19.10;;;14.00;;
14191;SDS011;7177;48.572;7.838;2024-03-08T11:33:16;19.00;;;13.83;;
14191;SDS011;7177;48.572;7.838;2024-03-08T11:35:42;18.37;;;13.93;;
14191;SDS011;7177;48.572;7.838;2024-03-08T11:38:10;20.23;;;14.47;;
14191;SDS011;7177;48.572;7.838;2024-03-08T11:40:36;17.97;;;13.73;;
14191;SDS011;7177;48.572;7.838;2024-03-08T11:43:02;19.43;;;14.83;;
14191;SDS011;7177;48.572;7.838;2024-03-08T11:45:32;17.07;;;13.77;;
14191;SDS011;7177;48.572;7.838;2024-03-08T11:48:06;18.80;;;13.67;;
14191;SDS011;7177;48.572;7.838;2024-03-08T11:50:31;18.30;;;13.63;;
14191;SDS011;7177;48.572;7.838;2024-03-08T11:53:04;18.20;;;13.93;;
14191;SDS011;7177;48.572;7.838;2024-03-08T11:55:33;20.73;;;14.53;;
14191;SDS011;7177;48.572;7.838;2024-03-08T11:58:03;24.57;;;17.73;;
14191;SDS011;7177;48.572;7.838;2024-03-08T12:00:30;20.07;;;15.10;;
14191;SDS011;7177;48.572;7.838;2024-03-08T12:03:09;21.10;;;13.93;;
14191;SDS011;7177;48.572;7.838;2024-03-08T12:05:35;18.40;;;13.67;;
14191;SDS011;7177;48.572;7.838;2024-03-08T12:08:04;20.70;;;13.47;;
14191;SDS011;7177;48.572;7.838;2024-03-08T12:10:32;19.50;;;14.13;;
14191;SDS011;7177;48.572;7.838;2024-03-08T12:12:58;20.17;;;14.47;;
14191;SDS011;7177;48.572;7.838;2024-03-08T12:15:28;17.73;;;13.50;;
14191;SDS011;7177;48.572;7.838;2024-03-08T12:17:54;18.83;;;12.40;;
14191;SDS011;7177;48.572;7.838;2024-03-08T12:22:48;15.03;;;12.30;;
14191;SDS011;7177;48.572;7.838;2024-03-08T12:25:14;15.13;;;12.30;;
14191;SDS011;7177;48.572;7.838;2024-03-08T12:27:41;16.83;;;13.07;;
14191;SDS011;7177;48.572;7.838;2024-03-08T12:31:09;17.00;;;12.90;;
14191;SDS011;7177;48.572;7.838;2024-03-08T12:33:13;16.50;;;12.10;;
14191;SDS011;7177;48.572;7.838;2024-03-08T12:35:39;18.07;;;13.20;;
14191;SDS011;7177;48.572;7.838;2024-03-08T12:38:07;21.13;;;13.77;;
14191;SDS011;7177;48.572;7.838;2024-03-08T12:40:33;17.13;;;12.47;;
14191;SDS011;7177;48.572;7.838;2024-03-08T12:43:06;17.73;;;13.23;;
14191;SDS011;7177;48.572;7.838;2024-03-08T12:45:32;18.60;;;13.40;;
14191;SDS011;7177;48.572;7.838;2024-03-08T12:47:58;16.07;;;12.33;;
14191;SDS011;7177;48.572;7.838;2024-03-08T12:50:24;17.30;;;12.57;;
14191;SDS011;7177;48.572;7.838;2024-03-08T12:52:50;21.13;;;13.93;;
14191;SDS011;7177;48.572;7.838;2024-03-08T12:55:17;18.27;;;13.43;;
14191;SDS011;7177;48.572;7.838;2024-03-08T12:57:43;15.77;;;12.57;;
14191;SDS011;7177;48.572;7.838;2024-03-08T13:00:10;18.23;;;13.20;;
14191;SDS011;7177;48.572;7.838;2024-03-08T13:02:43;17.63;;;13.73;;
14191;SDS011;7177;48.572;7.838;2024-03-08T13:05:12;19.33;;;13.20;;
14191;SDS011;7177;48.572;7.838;2024-03-08T13:07:39;18.50;;;12.97;;
14191;SDS011;7177;48.572;7.838;2024-03-08T13:10:05;16.70;;;13.03;;
14191;SDS011;7177;48.572;7.838;2024-03-08T13:12:32;19.60;;;13.30;;
14191;SDS011;7177;48.572;7.838;2024-03-08T13:14:58;16.20;;;11.80;;
14191;SDS011;7177;48.572;7.838;2024-03-08T13:17:23;17.17;;;12.87;;
14191;SDS011;7177;48.572;7.838;2024-03-08T13:19:49;16.23;;;11.90;;
14191;SDS011;7177;48.572;7.838;2024-03-08T13:22:14;19.97;;;13.33;;
14191;SDS011;7177;48.572;7.838;2024-03-08T13:24:44;17.90;;;13.47;;
14191;SDS011;7177;48.572;7.838;2024-03-08T13:27:10;18.83;;;12.90;;
14191;SDS011;7177;48.572;7.838;2024-03-08T13:29:53;17.80;;;13.43;;
14191;SDS011;7177;48.572;7.838;2024-03-08T13:32:18;19.53;;;13.30;;
14191;SDS011;7177;48.572;7.838;2024-03-08T13:34:45;17.83;;;13.47;;
14191;SDS011;7177;48.572;7.838;2024-03-08T13:37:12;17.07;;;13.20;;
14191;SDS011;7177;48.572;7.838;2024-03-08T13:39:40;16.73;;;12.33;;
14191;SDS011;7177;48.572;7.838;2024-03-08T13:42:08;19.20;;;13.50;;
14191;SDS011;7177;48.572;7.838;2024-03-08T13:44:37;19.23;;;14.40;;
14191;SDS011;7177;48.572;7.838;2024-03-08T13:47:04;18.10;;;13.30;;
14191;SDS011;7177;48.572;7.838;2024-03-08T13:49:30;19.50;;;13.30;;
14191;SDS011;7177;48.572;7.838;2024-03-08T13:51:56;18.57;;;13.83;;
14191;SDS011;7177;48.572;7.838;2024-03-08T13:54:23;15.37;;;12.33;;
14191;SDS011;7177;48.572;7.838;2024-03-08T13:56:49;22.00;;;13.20;;
14191;SDS011;7177;48.572;7.838;2024-03-08T13:59:17;21.03;;;12.77;;
14191;SDS011;7177;48.572;7.838;2024-03-08T14:01:43;17.30;;;12.60;;
14191;SDS011;7177;48.572;7.838;2024-03-08T14:04:09;21.87;;;13.87;;
14191;SDS011;7177;48.572;7.838;2024-03-08T14:06:34;17.17;;;13.50;;
14191;SDS011;7177;48.572;7.838;2024-03-08T14:09:00;19.87;;;12.60;;
14191;SDS011;7177;48.572;7.838;2024-03-08T14:11:26;15.77;;;12.17;;
14191;SDS011;7177;48.572;7.838;2024-03-08T14:13:52;17.00;;;12.33;;
14191;SDS011;7177;48.572;7.838;2024-03-08T14:16:18;17.43;;;12.33;;
14191;SDS011;7177;48.572;7.838;2024-03-08T14:18:44;18.93;;;12.77;;
14191;SDS011;7177;48.572;7.838;2024-03-08T14:21:10;18.27;;;12.87;;
14191;SDS011;7177;48.572;7.838;2024-03-08T14:23:35;17.80;;;12.63;;
14191;SDS011;7177;48.572;7.838;2024-03-08T14:26:01;17.30;;;12.47;;
14191;SDS011;7177;48.572;7.838;2024-03-08T14:28:27;15.30;;;11.13;;
14191;SDS011;7177;48.572;7.838;2024-03-08T14:30:53;16.80;;;12.40;;
14191;SDS011;7177;48.572;7.838;2024-03-08T14:33:19;16.00;;;12.40;;
14191;SDS011;7177;48.572;7.838;2024-03-08T14:35:44;17.00;;;12.40;;
14191;SDS011;7177;48.572;7.838;2024-03-08T14:38:12;17.47;;;11.33;;